sensor_id;sensor_type;location;lat;lon;timestamp;temperature;humidity
6210;DHT22;3138;52.550;13.148;2022-11-11T00:00:33;8.30;99.90
6210;DHT22;3138;52.550;13.148;2022-11-11T00:03:01;8.30;99.90
6210;DHT22;3138;52.550;13.148;2022-11-11T00:05:31;8.30;99.90
6210;DHT22;3138;52.550;13.148;2022-11-11T00:07:58;8.30;99.90
6210;DHT22;3138;52.550;13.148;2022-11-11T00:10:26;8.30;99.90
6210;DHT22;3138;52.550;13.148;2022-11-11T00:12:53;8.30;99.90
6210;DHT22;3138;52.550;13.148;2022-11-11T00:15:20;8.40;99.90
6210;DHT22;3138;52.550;13.148;2022-11-11T00:17:46;8.40;99.90
6210;DHT22;3138;52.550;13.148;2022-11-11T00:20:32;8.40;99.90
6210;DHT22;3138;52.550;13.148;2022-11-11T00:23:20;8.40;99.90
6210;DHT22;3138;52.550;13.148;2022-11-11T00:26:04;8.40;99.90
6210;DHT22;3138;52.550;13.148;2022-11-11T00:28:31;8.40;99.90
6210;DHT22;3138;52.550;13.148;2022-11-11T00:31:02;8.30;99.90
6210;DHT22;3138;52.550;13.148;2022-11-11T00:33:29;8.20;99.90
6210;DHT22;3138;52.550;13.148;2022-11-11T00:35:57;8.20;99.90
6210;DHT22;3138;52.550;13.148;2022-11-11T00:38:23;8.20;99.90
6210;DHT22;3138;52.550;13.148;2022-11-11T00:41:09;8.10;99.90
6210;DHT22;3138;52.550;13.148;2022-11-11T00:43:36;8.10;99.90
6210;DHT22;3138;52.550;13.148;2022-11-11T00:46:03;8.10;99.90
6210;DHT22;3138;52.550;13.148;2022-11-11T00:48:48;8.10;99.90
6210;DHT22;3138;52.550;13.148;2022-11-11T00:51:33;8.00;99.90
6210;DHT22;3138;52.550;13.148;2022-11-11T00:54:00;8.00;99.90
6210;DHT22;3138;52.550;13.148;2022-11-11T00:56:27;8.00;99.90
6210;DHT22;3138;52.550;13.148;2022-11-11T00:58:54;8.00;99.90
6210;DHT22;3138;52.550;13.148;2022-11-11T01:01:21;8.10;99.90
6210;DHT22;3138;52.550;13.148;2022-11-11T01:03:48;8.10;99.90
6210;DHT22;3138;52.550;13.148;2022-11-11T01:06:15;8.10;99.90
6210;DHT22;3138;52.550;13.148;2022-11-11T01:08:43;8.20;99.90
6210;DHT22;3138;52.550;13.148;2022-11-11T01:11:15;8.30;99.90
6210;DHT22;3138;52.550;13.148;2022-11-11T01:13:42;8.30;99.90
6210;DHT22;3138;52.550;13.148;2022-11-11T01:16:11;8.20;99.90
6210;DHT22;3138;52.550;13.148;2022-11-11T01:18:39;8.30;99.90
6210;DHT22;3138;52.550;13.148;2022-11-11T01:21:10;8.20;99.90
6210;DHT22;3138;52.550;13.148;2022-11-11T01:23:38;8.30;99.90
6210;DHT22;3138;52.550;13.148;2022-11-11T01:26:11;8.30;99.90
6210;DHT22;3138;52.550;13.148;2022-11-11T01:28:38;8.30;99.90
6210;DHT22;3138;52.550;13.148;2022-11-11T01:31:07;8.30;99.90
6210;DHT22;3138;52.550;13.148;2022-11-11T01:33:34;8.30;99.90
6210;DHT22;3138;52.550;13.148;2022-11-11T01:36:06;8.30;99.90
6210;DHT22;3138;52.550;13.148;2022-11-11T01:38:33;8.30;99.90
6210;DHT22;3138;52.550;13.148;2022-11-11T01:41:01;8.30;99.90
6210;DHT22;3138;52.550;13.148;2022-11-11T01:43:50;8.20;99.90
6210;DHT22;3138;52.550;13.148;2022-11-11T01:46:25;8.20;99.90
6210;DHT22;3138;52.550;13.148;2022-11-11T01:48:56;8.20;99.90
6210;DHT22;3138;52.550;13.148;2022-11-11T01:51:46;8.30;99.90
6210;DHT22;3138;52.550;13.148;2022-11-11T01:54:18;8.20;99.90
6210;DHT22;3138;52.550;13.148;2022-11-11T01:56:50;8.20;99.90
6210;DHT22;3138;52.550;13.148;2022-11-11T01:59:21;8.30;99.90
6210;DHT22;3138;52.550;13.148;2022-11-11T02:01:49;8.20;99.90
6210;DHT22;3138;52.550;13.148;2022-11-11T02:04:17;8.20;99.90
6210;DHT22;3138;52.550;13.148;2022-11-11T02:07:04;8.20;99.90
6210;DHT22;3138;52.550;13.148;2022-11-11T02:09:33;8.20;99.90
6210;DHT22;3138;52.550;13.148;2022-11-11T02:12:03;8.10;99.90
6210;DHT22;3138;52.550;13.148;2022-11-11T02:14:53;8.10;99.90
6210;DHT22;3138;52.550;13.148;2022-11-11T02:17:21;8.10;99.90
6210;DHT22;3138;52.550;13.148;2022-11-11T02:19:52;8.10;99.90
6210;DHT22;3138;52.550;13.148;2022-11-11T02:22:28;8.10;99.90
6210;DHT22;3138;52.550;13.148;2022-11-11T02:24:59;8.10;99.90
6210;DHT22;3138;52.550;13.148;2022-11-11T02:27:29;8.10;99.90
6210;DHT22;3138;52.550;13.148;2022-11-11T02:29:58;8.10;99.90
6210;DHT22;3138;52.550;13.148;2022-11-11T02:32:26;8.10;99.90
6210;DHT22;3138;52.550;13.148;2022-11-11T02:34:53;8.00;99.90
6210;DHT22;3138;52.550;13.148;2022-11-11T02:37:21;8.00;99.90
6210;DHT22;3138;52.550;13.148;2022-11-11T02:39:51;7.90;99.90
6210;DHT22;3138;52.550;13.148;2022-11-11T02:42:21;7.90;99.90
6210;DHT22;3138;52.550;13.148;2022-11-11T02:44:49;7.90;99.90
6210;DHT22;3138;52.550;13.148;2022-11-11T02:47:23;7.90;99.90
6210;DHT22;3138;52.550;13.148;2022-11-11T02:49:50;7.80;99.90
6210;DHT22;3138;52.550;13.148;2022-11-11T02:52:17;7.80;99.90
6210;DHT22;3138;52.550;13.148;2022-11-11T02:54:44;7.70;99.90
6210;DHT22;3138;52.550;13.148;2022-11-11T02:57:11;7.70;99.90
6210;DHT22;3138;52.550;13.148;2022-11-11T02:59:39;7.60;99.90
6210;DHT22;3138;52.550;13.148;2022-11-11T03:02:07;7.60;99.90
6210;DHT22;3138;52.550;13.148;2022-11-11T03:04:34;7.60;99.90
6210;DHT22;3138;52.550;13.148;2022-11-11T03:07:02;7.60;99.90
6210;DHT22;3138;52.550;13.148;2022-11-11T03:09:30;7.60;99.90
6210;DHT22;3138;52.550;13.148;2022-11-11T03:11:57;7.60;99.90
6210;DHT22;3138;52.550;13.148;2022-11-11T03:14:24;7.70;99.90
6210;DHT22;3138;52.550;13.148;2022-11-11T03:16:52;7.70;99.90
6210;DHT22;3138;52.550;13.148;2022-11-11T03:19:36;7.70;99.90
6210;DHT22;3138;52.550;13.148;2022-11-11T03:22:03;7.80;99.90
6210;DHT22;3138;52.550;13.148;2022-11-11T03:24:29;7.80;99.90
6210;DHT22;3138;52.550;13.148;2022-11-11T03:27:11;7.90;99.90
6210;DHT22;3138;52.550;13.148;2022-11-11T03:29:38;7.90;99.90
6210;DHT22;3138;52.550;13.148;2022-11-11T03:32:07;7.90;99.90
6210;DHT22;3138;52.550;13.148;2022-11-11T03:34:34;7.90;99.90
6210;DHT22;3138;52.550;13.148;2022-11-11T03:37:01;7.90;99.90
6210;DHT22;3138;52.550;13.148;2022-11-11T03:39:45;7.80;99.90
6210;DHT22;3138;52.550;13.148;2022-11-11T03:42:12;7.80;99.90
6210;DHT22;3138;52.550;13.148;2022-11-11T03:44:39;7.80;99.90
6210;DHT22;3138;52.550;13.148;2022-11-11T03:47:07;7.80;99.90
6210;DHT22;3138;52.550;13.148;2022-11-11T03:49:34;7.80;99.90
6210;DHT22;3138;52.550;13.148;2022-11-11T03:52:01;7.90;99.90
6210;DHT22;3138;52.550;13.148;2022-11-11T03:54:28;8.00;99.90
6210;DHT22;3138;52.550;13.148;2022-11-11T03:56:54;8.00;99.90
6210;DHT22;3138;52.550;13.148;2022-11-11T03:59:42;8.00;99.90
6210;DHT22;3138;52.550;13.148;2022-11-11T04:02:12;8.20;99.90
6210;DHT22;3138;52.550;13.148;2022-11-11T04:04:57;8.20;99.90
6210;DHT22;3138;52.550;13.148;2022-11-11T04:07:41;8.20;99.90
6210;DHT22;3138;52.550;13.148;2022-11-11T04:10:27;8.20;99.90
6210;DHT22;3138;52.550;13.148;2022-11-11T04:12:54;8.30;99.90
6210;DHT22;3138;52.550;13.148;2022-11-11T04:15:39;8.20;99.90
6210;DHT22;3138;52.550;13.148;2022-11-11T04:18:24;8.20;99.90
6210;DHT22;3138;52.550;13.148;2022-11-11T04:21:06;8.30;99.90
6210;DHT22;3138;52.550;13.148;2022-11-11T04:23:50;8.30;99.90
6210;DHT22;3138;52.550;13.148;2022-11-11T04:26:17;8.30;99.90
6210;DHT22;3138;52.550;13.148;2022-11-11T04:28:43;8.30;99.90
6210;DHT22;3138;52.550;13.148;2022-11-11T04:31:27;8.30;99.90
6210;DHT22;3138;52.550;13.148;2022-11-11T04:33:55;8.30;99.90
6210;DHT22;3138;52.550;13.148;2022-11-11T04:36:21;8.30;99.90
6210;DHT22;3138;52.550;13.148;2022-11-11T04:38:48;8.40;99.90
6210;DHT22;3138;52.550;13.148;2022-11-11T04:41:32;8.40;99.90
6210;DHT22;3138;52.550;13.148;2022-11-11T04:43:59;8.40;99.90
6210;DHT22;3138;52.550;13.148;2022-11-11T04:46:43;8.40;99.90
6210;DHT22;3138;52.550;13.148;2022-11-11T04:49:11;8.40;99.90
6210;DHT22;3138;52.550;13.148;2022-11-11T04:51:38;8.30;99.90
6210;DHT22;3138;52.550;13.148;2022-11-11T04:54:22;8.30;99.90
6210;DHT22;3138;52.550;13.148;2022-11-11T04:56:49;8.30;99.90
6210;DHT22;3138;52.550;13.148;2022-11-11T04:59:15;8.30;99.90
6210;DHT22;3138;52.550;13.148;2022-11-11T05:01:42;8.30;99.90
6210;DHT22;3138;52.550;13.148;2022-11-11T05:04:28;8.30;99.90
6210;DHT22;3138;52.550;13.148;2022-11-11T05:06:55;8.30;99.90
6210;DHT22;3138;52.550;13.148;2022-11-11T05:09:39;8.30;99.90
6210;DHT22;3138;52.550;13.148;2022-11-11T05:12:06;8.30;99.90
6210;DHT22;3138;52.550;13.148;2022-11-11T05:14:33;8.30;99.90
6210;DHT22;3138;52.550;13.148;2022-11-11T05:17:17;8.30;99.90
6210;DHT22;3138;52.550;13.148;2022-11-11T05:20:03;8.20;99.90
6210;DHT22;3138;52.550;13.148;2022-11-11T05:22:48;8.20;99.90
6210;DHT22;3138;52.550;13.148;2022-11-11T05:25:14;8.20;99.90
6210;DHT22;3138;52.550;13.148;2022-11-11T05:27:56;8.10;99.90
6210;DHT22;3138;52.550;13.148;2022-11-11T05:30:23;8.10;99.90
6210;DHT22;3138;52.550;13.148;2022-11-11T05:32:53;8.20;99.90
6210;DHT22;3138;52.550;13.148;2022-11-11T05:35:21;8.20;99.90
6210;DHT22;3138;52.550;13.148;2022-11-11T05:37:48;8.10;99.90
6210;DHT22;3138;52.550;13.148;2022-11-11T05:40:35;8.10;99.90
6210;DHT22;3138;52.550;13.148;2022-11-11T05:43:02;8.20;99.90
6210;DHT22;3138;52.550;13.148;2022-11-11T05:45:29;8.10;99.90
6210;DHT22;3138;52.550;13.148;2022-11-11T05:48:00;8.10;99.90
6210;DHT22;3138;52.550;13.148;2022-11-11T05:50:28;8.00;99.90
6210;DHT22;3138;52.550;13.148;2022-11-11T05:52:55;7.90;99.90
6210;DHT22;3138;52.550;13.148;2022-11-11T05:55:22;8.00;99.90
6210;DHT22;3138;52.550;13.148;2022-11-11T05:57:49;7.90;99.90
6210;DHT22;3138;52.550;13.148;2022-11-11T06:00:17;7.90;99.90
6210;DHT22;3138;52.550;13.148;2022-11-11T06:02:44;7.80;99.90
6210;DHT22;3138;52.550;13.148;2022-11-11T06:05:10;7.90;99.90
6210;DHT22;3138;52.550;13.148;2022-11-11T06:07:39;7.80;99.90
6210;DHT22;3138;52.550;13.148;2022-11-11T06:10:07;7.90;99.90
6210;DHT22;3138;52.550;13.148;2022-11-11T06:12:51;7.90;99.90
6210;DHT22;3138;52.550;13.148;2022-11-11T06:15:38;7.80;99.90
6210;DHT22;3138;52.550;13.148;2022-11-11T06:18:06;7.70;99.90
6210;DHT22;3138;52.550;13.148;2022-11-11T06:20:33;7.80;99.90
6210;DHT22;3138;52.550;13.148;2022-11-11T06:23:02;7.90;99.90
6210;DHT22;3138;52.550;13.148;2022-11-11T06:25:30;7.90;99.90
6210;DHT22;3138;52.550;13.148;2022-11-11T06:28:15;7.90;99.90
6210;DHT22;3138;52.550;13.148;2022-11-11T06:30:43;7.80;99.90
6210;DHT22;3138;52.550;13.148;2022-11-11T06:33:10;7.80;99.90
6210;DHT22;3138;52.550;13.148;2022-11-11T06:35:38;7.80;99.90
6210;DHT22;3138;52.550;13.148;2022-11-11T06:38:07;7.80;99.90
6210;DHT22;3138;52.550;13.148;2022-11-11T06:40:33;7.70;99.90
6210;DHT22;3138;52.550;13.148;2022-11-11T06:43:00;7.80;99.90
6210;DHT22;3138;52.550;13.148;2022-11-11T06:45:29;7.90;99.90
6210;DHT22;3138;52.550;13.148;2022-11-11T06:47:56;7.90;99.90
6210;DHT22;3138;52.550;13.148;2022-11-11T06:50:23;7.90;99.90
6210;DHT22;3138;52.550;13.148;2022-11-11T06:52:50;7.90;99.90
6210;DHT22;3138;52.550;13.148;2022-11-11T06:55:18;8.00;99.90
6210;DHT22;3138;52.550;13.148;2022-11-11T06:57:45;8.10;99.90
6210;DHT22;3138;52.550;13.148;2022-11-11T07:00:12;8.20;99.90
6210;DHT22;3138;52.550;13.148;2022-11-11T07:02:39;8.30;99.90
6210;DHT22;3138;52.550;13.148;2022-11-11T07:05:07;8.30;99.90
6210;DHT22;3138;52.550;13.148;2022-11-11T07:07:33;8.30;99.90
6210;DHT22;3138;52.550;13.148;2022-11-11T07:10:00;8.30;99.90
6210;DHT22;3138;52.550;13.148;2022-11-11T07:12:28;8.30;99.90
6210;DHT22;3138;52.550;13.148;2022-11-11T07:14:55;8.30;99.90
6210;DHT22;3138;52.550;13.148;2022-11-11T07:17:22;8.30;99.90
6210;DHT22;3138;52.550;13.148;2022-11-11T07:19:49;8.40;99.90
6210;DHT22;3138;52.550;13.148;2022-11-11T07:22:16;8.40;99.90
6210;DHT22;3138;52.550;13.148;2022-11-11T07:24:42;8.50;99.90
6210;DHT22;3138;52.550;13.148;2022-11-11T07:27:09;8.50;99.90
6210;DHT22;3138;52.550;13.148;2022-11-11T07:29:37;8.60;99.90
6210;DHT22;3138;52.550;13.148;2022-11-11T07:32:04;8.50;99.90
6210;DHT22;3138;52.550;13.148;2022-11-11T07:34:31;8.60;99.90
6210;DHT22;3138;52.550;13.148;2022-11-11T07:36:58;8.60;99.90
6210;DHT22;3138;52.550;13.148;2022-11-11T07:39:25;8.70;99.90
6210;DHT22;3138;52.550;13.148;2022-11-11T07:41:52;8.70;99.90
6210;DHT22;3138;52.550;13.148;2022-11-11T07:44:18;8.80;99.90
6210;DHT22;3138;52.550;13.148;2022-11-11T07:46:47;8.80;99.90
6210;DHT22;3138;52.550;13.148;2022-11-11T07:49:13;8.80;99.90
6210;DHT22;3138;52.550;13.148;2022-11-11T07:51:40;8.90;99.90
6210;DHT22;3138;52.550;13.148;2022-11-11T07:54:07;8.90;99.90
6210;DHT22;3138;52.550;13.148;2022-11-11T07:56:34;9.00;99.90
6210;DHT22;3138;52.550;13.148;2022-11-11T07:59:01;9.00;99.90
6210;DHT22;3138;52.550;13.148;2022-11-11T08:01:28;9.10;99.90
6210;DHT22;3138;52.550;13.148;2022-11-11T08:03:56;9.20;99.90
6210;DHT22;3138;52.550;13.148;2022-11-11T08:06:23;9.30;99.90
6210;DHT22;3138;52.550;13.148;2022-11-11T08:08:50;9.30;99.90
6210;DHT22;3138;52.550;13.148;2022-11-11T08:11:17;9.40;99.90
6210;DHT22;3138;52.550;13.148;2022-11-11T08:14:04;9.50;99.90
6210;DHT22;3138;52.550;13.148;2022-11-11T08:16:30;9.50;99.90
6210;DHT22;3138;52.550;13.148;2022-11-11T08:18:58;9.60;99.90
6210;DHT22;3138;52.550;13.148;2022-11-11T08:21:25;9.60;99.90
6210;DHT22;3138;52.550;13.148;2022-11-11T08:23:53;9.70;99.90
6210;DHT22;3138;52.550;13.148;2022-11-11T08:26:21;9.70;99.90
6210;DHT22;3138;52.550;13.148;2022-11-11T08:28:50;9.80;99.90
6210;DHT22;3138;52.550;13.148;2022-11-11T08:31:16;9.80;99.90
6210;DHT22;3138;52.550;13.148;2022-11-11T08:33:43;9.90;99.90
6210;DHT22;3138;52.550;13.148;2022-11-11T08:36:13;9.90;99.90
6210;DHT22;3138;52.550;13.148;2022-11-11T08:38:39;10.00;99.90
6210;DHT22;3138;52.550;13.148;2022-11-11T08:41:07;10.10;99.90
6210;DHT22;3138;52.550;13.148;2022-11-11T08:43:33;10.20;99.90
6210;DHT22;3138;52.550;13.148;2022-11-11T08:46:01;10.20;99.90
6210;DHT22;3138;52.550;13.148;2022-11-11T08:48:29;10.30;99.90
6210;DHT22;3138;52.550;13.148;2022-11-11T08:50:56;10.40;99.90
6210;DHT22;3138;52.550;13.148;2022-11-11T08:53:25;10.40;99.90
6210;DHT22;3138;52.550;13.148;2022-11-11T08:55:52;10.50;99.90
6210;DHT22;3138;52.550;13.148;2022-11-11T08:58:19;10.50;99.90
6210;DHT22;3138;52.550;13.148;2022-11-11T09:00:46;10.60;99.90
6210;DHT22;3138;52.550;13.148;2022-11-11T09:03:13;10.60;99.90
6210;DHT22;3138;52.550;13.148;2022-11-11T09:05:40;10.70;99.90
6210;DHT22;3138;52.550;13.148;2022-11-11T09:08:07;10.70;99.90
6210;DHT22;3138;52.550;13.148;2022-11-11T09:10:36;10.80;99.90
6210;DHT22;3138;52.550;13.148;2022-11-11T09:13:03;10.90;99.90
6210;DHT22;3138;52.550;13.148;2022-11-11T09:15:30;11.00;99.90
6210;DHT22;3138;52.550;13.148;2022-11-11T09:17:57;11.00;99.90
6210;DHT22;3138;52.550;13.148;2022-11-11T09:20:24;11.10;99.90
6210;DHT22;3138;52.550;13.148;2022-11-11T09:22:51;11.10;99.90
6210;DHT22;3138;52.550;13.148;2022-11-11T09:25:19;11.20;99.90
6210;DHT22;3138;52.550;13.148;2022-11-11T09:27:54;11.30;99.90
6210;DHT22;3138;52.550;13.148;2022-11-11T09:30:22;11.30;99.90
6210;DHT22;3138;52.550;13.148;2022-11-11T09:32:49;11.40;99.90
6210;DHT22;3138;52.550;13.148;2022-11-11T09:35:16;11.50;99.90
6210;DHT22;3138;52.550;13.148;2022-11-11T09:37:53;11.50;99.90
6210;DHT22;3138;52.550;13.148;2022-11-11T09:40:22;11.50;99.90
6210;DHT22;3138;52.550;13.148;2022-11-11T09:43:02;11.50;99.90
6210;DHT22;3138;52.550;13.148;2022-11-11T09:45:36;11.60;99.90
6210;DHT22;3138;52.550;13.148;2022-11-11T09:48:25;11.60;99.90
6210;DHT22;3138;52.550;13.148;2022-11-11T09:50:57;11.70;99.90
6210;DHT22;3138;52.550;13.148;2022-11-11T09:53:28;11.70;99.90
6210;DHT22;3138;52.550;13.148;2022-11-11T09:56:01;11.80;99.90
6210;DHT22;3138;52.550;13.148;2022-11-11T09:58:36;11.80;99.90
6210;DHT22;3138;52.550;13.148;2022-11-11T10:01:08;12.00;99.90
6210;DHT22;3138;52.550;13.148;2022-11-11T10:03:40;12.00;99.90
6210;DHT22;3138;52.550;13.148;2022-11-11T10:06:12;12.10;99.90
6210;DHT22;3138;52.550;13.148;2022-11-11T10:08:44;12.20;99.90
6210;DHT22;3138;52.550;13.148;2022-11-11T10:11:17;12.20;99.90
6210;DHT22;3138;52.550;13.148;2022-11-11T10:13:47;12.20;99.90
6210;DHT22;3138;52.550;13.148;2022-11-11T10:16:20;12.30;99.90
6210;DHT22;3138;52.550;13.148;2022-11-11T10:19:00;12.40;99.90
6210;DHT22;3138;52.550;13.148;2022-11-11T10:21:35;12.40;99.90
6210;DHT22;3138;52.550;13.148;2022-11-11T10:24:10;12.40;99.50
6210;DHT22;3138;52.550;13.148;2022-11-11T10:26:40;12.30;98.50
6210;DHT22;3138;52.550;13.148;2022-11-11T10:29:13;12.40;98.90
6210;DHT22;3138;52.550;13.148;2022-11-11T10:31:43;12.40;98.40
6210;DHT22;3138;52.550;13.148;2022-11-11T10:34:12;12.40;98.00
6210;DHT22;3138;52.550;13.148;2022-11-11T10:36:43;12.50;99.00
6210;DHT22;3138;52.550;13.148;2022-11-11T10:39:17;12.50;96.70
6210;DHT22;3138;52.550;13.148;2022-11-11T10:41:47;12.60;97.50
6210;DHT22;3138;52.550;13.148;2022-11-11T10:44:21;12.70;97.80
6210;DHT22;3138;52.550;13.148;2022-11-11T10:46:57;12.70;97.60
6210;DHT22;3138;52.550;13.148;2022-11-11T10:49:30;12.60;95.40
6210;DHT22;3138;52.550;13.148;2022-11-11T10:52:03;12.60;95.30
6210;DHT22;3138;52.550;13.148;2022-11-11T10:54:34;12.60;94.00
6210;DHT22;3138;52.550;13.148;2022-11-11T10:57:10;12.70;95.20
6210;DHT22;3138;52.550;13.148;2022-11-11T10:59:44;12.90;94.80
6210;DHT22;3138;52.550;13.148;2022-11-11T11:02:18;12.80;93.40
6210;DHT22;3138;52.550;13.148;2022-11-11T11:04:49;12.90;94.20
6210;DHT22;3138;52.550;13.148;2022-11-11T11:07:21;12.80;92.40
6210;DHT22;3138;52.550;13.148;2022-11-11T11:09:53;12.80;93.10
6210;DHT22;3138;52.550;13.148;2022-11-11T11:12:25;12.90;93.00
6210;DHT22;3138;52.550;13.148;2022-11-11T11:14:58;13.00;92.70
6210;DHT22;3138;52.550;13.148;2022-11-11T11:17:29;13.00;91.90
6210;DHT22;3138;52.550;13.148;2022-11-11T11:20:08;13.00;91.70
6210;DHT22;3138;52.550;13.148;2022-11-11T11:22:46;13.10;92.30
6210;DHT22;3138;52.550;13.148;2022-11-11T11:25:14;13.10;92.00
6210;DHT22;3138;52.550;13.148;2022-11-11T11:27:41;13.10;90.30
6210;DHT22;3138;52.550;13.148;2022-11-11T11:30:15;13.00;89.20
6210;DHT22;3138;52.550;13.148;2022-11-11T11:32:56;13.10;88.80
6210;DHT22;3138;52.550;13.148;2022-11-11T11:35:32;13.10;88.70
6210;DHT22;3138;52.550;13.148;2022-11-11T11:37:59;13.10;89.20
6210;DHT22;3138;52.550;13.148;2022-11-11T11:40:26;13.10;86.50
6210;DHT22;3138;52.550;13.148;2022-11-11T11:42:54;13.20;86.10
6210;DHT22;3138;52.550;13.148;2022-11-11T11:45:25;13.10;83.00
6210;DHT22;3138;52.550;13.148;2022-11-11T11:48:08;13.10;84.20
6210;DHT22;3138;52.550;13.148;2022-11-11T11:50:43;13.20;83.00
6210;DHT22;3138;52.550;13.148;2022-11-11T11:53:24;13.20;84.00
6210;DHT22;3138;52.550;13.148;2022-11-11T11:56:02;13.20;83.40
6210;DHT22;3138;52.550;13.148;2022-11-11T11:58:41;13.10;84.00
6210;DHT22;3138;52.550;13.148;2022-11-11T12:01:20;13.00;82.80
6210;DHT22;3138;52.550;13.148;2022-11-11T12:06:49;13.10;85.30
6210;DHT22;3138;52.550;13.148;2022-11-11T12:09:29;13.00;84.90
6210;DHT22;3138;52.550;13.148;2022-11-11T12:12:03;13.00;83.90
6210;DHT22;3138;52.550;13.148;2022-11-11T12:14:43;13.00;83.10
6210;DHT22;3138;52.550;13.148;2022-11-11T12:17:26;13.10;84.20
6210;DHT22;3138;52.550;13.148;2022-11-11T12:20:01;13.20;84.80
6210;DHT22;3138;52.550;13.148;2022-11-11T12:22:40;13.20;84.70
6210;DHT22;3138;52.550;13.148;2022-11-11T12:25:17;13.30;84.80
6210;DHT22;3138;52.550;13.148;2022-11-11T12:27:54;13.20;83.20
6210;DHT22;3138;52.550;13.148;2022-11-11T12:30:23;13.20;83.00
6210;DHT22;3138;52.550;13.148;2022-11-11T12:35:59;13.40;81.00
6210;DHT22;3138;52.550;13.148;2022-11-11T12:38:45;13.40;82.10
6210;DHT22;3138;52.550;13.148;2022-11-11T12:41:23;13.40;82.00
6210;DHT22;3138;52.550;13.148;2022-11-11T12:43:57;13.40;81.30
6210;DHT22;3138;52.550;13.148;2022-11-11T12:46:36;13.50;80.30
6210;DHT22;3138;52.550;13.148;2022-11-11T12:49:19;13.40;78.80
6210;DHT22;3138;52.550;13.148;2022-11-11T12:51:55;13.50;79.60
6210;DHT22;3138;52.550;13.148;2022-11-11T12:54:29;13.50;79.20
6210;DHT22;3138;52.550;13.148;2022-11-11T12:57:02;13.50;80.20
6210;DHT22;3138;52.550;13.148;2022-11-11T12:59:52;13.50;79.70
6210;DHT22;3138;52.550;13.148;2022-11-11T13:02:41;13.60;80.80
6210;DHT22;3138;52.550;13.148;2022-11-11T13:05:20;13.50;79.20
6210;DHT22;3138;52.550;13.148;2022-11-11T13:08:18;13.40;79.80
6210;DHT22;3138;52.550;13.148;2022-11-11T13:10:54;13.40;80.20
6210;DHT22;3138;52.550;13.148;2022-11-11T13:13:34;13.40;81.50
6210;DHT22;3138;52.550;13.148;2022-11-11T13:16:05;13.50;80.30
6210;DHT22;3138;52.550;13.148;2022-11-11T13:18:40;13.40;79.10
6210;DHT22;3138;52.550;13.148;2022-11-11T13:21:13;13.40;78.70
6210;DHT22;3138;52.550;13.148;2022-11-11T13:23:41;13.30;79.50
6210;DHT22;3138;52.550;13.148;2022-11-11T13:26:23;13.40;77.90
6210;DHT22;3138;52.550;13.148;2022-11-11T13:29:00;13.30;77.10
6210;DHT22;3138;52.550;13.148;2022-11-11T13:31:32;13.30;78.20
6210;DHT22;3138;52.550;13.148;2022-11-11T13:34:04;13.30;79.60
6210;DHT22;3138;52.550;13.148;2022-11-11T13:36:42;13.30;81.00
6210;DHT22;3138;52.550;13.148;2022-11-11T13:39:23;13.20;81.20
6210;DHT22;3138;52.550;13.148;2022-11-11T13:41:52;13.20;78.70
6210;DHT22;3138;52.550;13.148;2022-11-11T13:44:23;13.10;79.30
6210;DHT22;3138;52.550;13.148;2022-11-11T13:46:51;13.20;79.00
6210;DHT22;3138;52.550;13.148;2022-11-11T13:49:23;13.10;78.90
6210;DHT22;3138;52.550;13.148;2022-11-11T13:51:59;13.10;80.50
6210;DHT22;3138;52.550;13.148;2022-11-11T13:54:28;13.10;79.50
6210;DHT22;3138;52.550;13.148;2022-11-11T13:57:02;13.00;80.70
6210;DHT22;3138;52.550;13.148;2022-11-11T13:59:32;13.00;81.60
6210;DHT22;3138;52.550;13.148;2022-11-11T14:02:28;12.90;83.90
6210;DHT22;3138;52.550;13.148;2022-11-11T14:05:20;12.90;84.40
6210;DHT22;3138;52.550;13.148;2022-11-11T14:07:51;12.90;86.50
6210;DHT22;3138;52.550;13.148;2022-11-11T14:13:40;12.90;84.30
6210;DHT22;3138;52.550;13.148;2022-11-11T14:16:11;12.80;86.70
6210;DHT22;3138;52.550;13.148;2022-11-11T14:18:47;12.80;86.90
6210;DHT22;3138;52.550;13.148;2022-11-11T14:21:47;12.80;86.90
6210;DHT22;3138;52.550;13.148;2022-11-11T14:24:25;12.70;88.80
6210;DHT22;3138;52.550;13.148;2022-11-11T14:26:59;12.60;89.50
6210;DHT22;3138;52.550;13.148;2022-11-11T14:29:30;12.60;90.00
6210;DHT22;3138;52.550;13.148;2022-11-11T14:35:27;12.50;91.70
6210;DHT22;3138;52.550;13.148;2022-11-11T14:38:20;12.40;92.30
6210;DHT22;3138;52.550;13.148;2022-11-11T14:40:51;12.40;92.60
6210;DHT22;3138;52.550;13.148;2022-11-11T14:43:35;12.30;92.70
6210;DHT22;3138;52.550;13.148;2022-11-11T14:46:05;12.20;94.40
6210;DHT22;3138;52.550;13.148;2022-11-11T14:49:00;12.10;95.70
6210;DHT22;3138;52.550;13.148;2022-11-11T14:51:40;12.10;96.30
6210;DHT22;3138;52.550;13.148;2022-11-11T14:54:24;12.00;97.20
6210;DHT22;3138;52.550;13.148;2022-11-11T14:56:59;11.90;98.30
6210;DHT22;3138;52.550;13.148;2022-11-11T14:59:28;11.80;99.90
6210;DHT22;3138;52.550;13.148;2022-11-11T15:01:56;11.70;99.90
6210;DHT22;3138;52.550;13.148;2022-11-11T15:04:26;11.60;99.90
6210;DHT22;3138;52.550;13.148;2022-11-11T15:06:57;11.40;99.90
6210;DHT22;3138;52.550;13.148;2022-11-11T15:09:51;11.30;99.90
6210;DHT22;3138;52.550;13.148;2022-11-11T15:12:35;11.20;99.90
6210;DHT22;3138;52.550;13.148;2022-11-11T15:15:10;11.00;99.90
6210;DHT22;3138;52.550;13.148;2022-11-11T15:17:49;10.90;99.90
6210;DHT22;3138;52.550;13.148;2022-11-11T15:20:28;10.80;99.90
6210;DHT22;3138;52.550;13.148;2022-11-11T15:23:02;10.60;99.90
6210;DHT22;3138;52.550;13.148;2022-11-11T15:25:43;10.50;99.90
6210;DHT22;3138;52.550;13.148;2022-11-11T15:28:21;10.50;99.90
6210;DHT22;3138;52.550;13.148;2022-11-11T15:31:01;10.30;99.90
6210;DHT22;3138;52.550;13.148;2022-11-11T15:33:42;10.20;99.90
6210;DHT22;3138;52.550;13.148;2022-11-11T15:36:17;10.10;99.90
6210;DHT22;3138;52.550;13.148;2022-11-11T15:38:49;10.00;99.90
6210;DHT22;3138;52.550;13.148;2022-11-11T15:41:21;9.90;99.90
6210;DHT22;3138;52.550;13.148;2022-11-11T15:43:51;9.80;99.90
6210;DHT22;3138;52.550;13.148;2022-11-11T15:46:23;9.60;99.90
6210;DHT22;3138;52.550;13.148;2022-11-11T15:48:51;9.60;99.90
6210;DHT22;3138;52.550;13.148;2022-11-11T15:51:29;9.40;99.90
6210;DHT22;3138;52.550;13.148;2022-11-11T15:54:09;9.30;99.90
6210;DHT22;3138;52.550;13.148;2022-11-11T15:56:36;9.20;99.90
6210;DHT22;3138;52.550;13.148;2022-11-11T15:59:20;9.10;99.90
6210;DHT22;3138;52.550;13.148;2022-11-11T16:01:48;9.00;99.90
6210;DHT22;3138;52.550;13.148;2022-11-11T16:04:17;8.90;99.90
6210;DHT22;3138;52.550;13.148;2022-11-11T16:06:44;8.80;99.90
6210;DHT22;3138;52.550;13.148;2022-11-11T16:09:13;8.70;99.90
6210;DHT22;3138;52.550;13.148;2022-11-11T16:11:41;8.70;99.90
6210;DHT22;3138;52.550;13.148;2022-11-11T16:14:22;8.60;99.90
6210;DHT22;3138;52.550;13.148;2022-11-11T16:16:52;8.50;99.90
6210;DHT22;3138;52.550;13.148;2022-11-11T16:19:27;8.40;99.90
6210;DHT22;3138;52.550;13.148;2022-11-11T16:21:59;8.30;99.90
6210;DHT22;3138;52.550;13.148;2022-11-11T16:24:30;8.20;99.90
6210;DHT22;3138;52.550;13.148;2022-11-11T16:26:57;8.20;99.90
6210;DHT22;3138;52.550;13.148;2022-11-11T16:29:33;8.10;99.90
6210;DHT22;3138;52.550;13.148;2022-11-11T16:32:01;8.00;99.90
6210;DHT22;3138;52.550;13.148;2022-11-11T16:34:43;7.90;99.90
6210;DHT22;3138;52.550;13.148;2022-11-11T16:37:11;7.80;99.90
6210;DHT22;3138;52.550;13.148;2022-11-11T16:39:40;7.80;99.90